createdAt,value
2019-04-21T00:00:35.330Z,11.81
2019-04-21T00:03:09.930Z,11.74
2019-04-21T00:05:58.731Z,11.72
2019-04-21T00:08:30.549Z,11.71
2019-04-21T00:11:02.999Z,11.66
2019-04-21T00:13:24.893Z,11.63
2019-04-21T00:15:48.729Z,11.60
2019-04-21T00:18:39.721Z,11.54
2019-04-21T00:21:12.165Z,11.50
2019-04-21T00:23:49.627Z,11.45
2019-04-21T00:26:24.038Z,11.48
2019-04-21T00:28:59.570Z,11.47
2019-04-21T00:31:24.661Z,11.42
2019-04-21T00:33:39.854Z,11.48
2019-04-21T00:36:14.869Z,11.53
2019-04-21T00:39:06.849Z,11.43
2019-04-21T00:41:29.672Z,11.36
2019-04-21T00:43:56.017Z,11.28
2019-04-21T00:46:27.970Z,11.13
2019-04-21T00:49:03.121Z,11.12
2019-04-21T00:51:49.796Z,11.12
2019-04-21T00:54:18.471Z,11.11
2019-04-21T00:56:49.513Z,11.12
2019-04-21T00:59:15.125Z,11.13
2019-04-21T01:01:44.687Z,11.21
2019-04-21T01:04:17.742Z,11.20
2019-04-21T01:06:53.123Z,11.12
2019-04-21T01:09:13.808Z,11.06
2019-04-21T01:11:49.540Z,11.02
2019-04-21T01:14:32.819Z,11.00
2019-04-21T01:16:51.354Z,10.96
2019-04-21T01:19:23.808Z,10.91
2019-04-21T01:21:34.242Z,10.86
2019-04-21T01:24:11.842Z,10.81
2019-04-21T01:26:53.698Z,10.73
2019-04-21T01:29:37.208Z,10.71
2019-04-21T01:32:13.240Z,10.71
2019-04-21T01:34:39.334Z,10.65
2019-04-21T01:37:05.687Z,10.55
2019-04-21T01:39:42.704Z,10.55
2019-04-21T01:42:10.321Z,10.59
2019-04-21T01:44:44.477Z,10.63
2019-04-21T01:47:08.621Z,10.63
2019-04-21T01:49:34.496Z,10.56
2019-04-21T01:52:38.272Z,10.55
2019-04-21T01:55:00.181Z,10.54
2019-04-21T01:57:29.647Z,10.64
2019-04-21T01:59:54.874Z,10.57
2019-04-21T02:02:41.467Z,10.49
2019-04-21T02:05:10.499Z,10.43
2019-04-21T02:07:41.467Z,10.41
2019-04-21T02:10:12.811Z,10.40
2019-04-21T02:12:42.704Z,10.36
2019-04-21T02:15:20.091Z,10.34
2019-04-21T02:17:45.881Z,10.24
2019-04-21T02:20:08.146Z,10.14
2019-04-21T02:22:59.149Z,10.12
2019-04-21T02:25:21.780Z,10.15
2019-04-21T02:27:55.412Z,10.15
2019-04-21T02:30:33.523Z,10.09
2019-04-21T02:33:19.593Z,10.15
2019-04-21T02:38:11.957Z,10.08
2019-04-21T02:40:39.018Z,10.05
2019-04-21T02:45:38.192Z,10.08
2019-04-21T02:48:15.124Z,10.10
2019-04-21T02:50:37.648Z,10.06
2019-04-21T02:55:44.188Z,10.01
2019-04-21T02:58:41.681Z,9.98
2019-04-21T03:01:24.561Z,10.02
2019-04-21T03:03:51.290Z,10.01
2019-04-21T03:06:27.288Z,10.07
2019-04-21T03:11:17.122Z,10.06
2019-04-21T03:13:56.756Z,10.05
2019-04-21T03:23:57.535Z,9.97
2019-04-21T03:29:05.850Z,9.96
2019-04-21T03:36:52.743Z,9.74
2019-04-21T03:39:01.300Z,9.73
2019-04-21T03:41:40.315Z,9.70
2019-04-21T03:44:09.856Z,9.63
2019-04-21T03:46:41.387Z,9.58
2019-04-21T03:49:28.139Z,9.56
2019-04-21T03:51:47.866Z,9.56
2019-04-21T03:54:09.183Z,9.49
2019-04-21T04:01:55.743Z,9.48
2019-04-21T04:04:30.784Z,9.51
2019-04-21T04:07:11.153Z,9.51
2019-04-21T04:12:13.332Z,9.44
2019-04-21T04:17:19.653Z,9.44
2019-04-21T04:19:47.587Z,9.49
2019-04-21T04:22:31.394Z,9.45
2019-04-21T04:24:57.538Z,9.37
2019-04-21T04:27:53.505Z,9.33
2019-04-21T04:29:59.103Z,9.33
2019-04-21T04:32:30.662Z,9.42
2019-04-21T04:35:03.788Z,9.48
2019-04-21T04:37:45.033Z,9.52
2019-04-21T04:40:21.421Z,9.46
2019-04-21T04:47:59.142Z,9.61
2019-04-21T04:50:29.976Z,9.63
2019-04-21T04:53:14.063Z,9.70
2019-04-21T04:55:31.966Z,9.69
2019-04-21T05:02:55.950Z,9.75
2019-04-21T05:05:30.031Z,9.84
2019-04-21T05:10:38.505Z,10.06
2019-04-21T05:13:02.277Z,10.09
2019-04-21T05:15:42.089Z,10.12
2019-04-21T05:18:05.443Z,10.08
2019-04-21T05:20:37.977Z,10.11
2019-04-21T05:22:59.804Z,10.13
2019-04-21T05:25:30.717Z,10.16
2019-04-21T05:27:56.922Z,10.28
2019-04-21T05:30:40.460Z,10.29
2019-04-21T05:33:30.735Z,10.24
2019-04-21T05:35:57.246Z,10.36
2019-04-21T05:38:37.704Z,10.39
2019-04-21T05:41:05.129Z,10.46
2019-04-21T05:43:41.735Z,10.57
2019-04-21T05:46:13.384Z,10.62
2019-04-21T05:48:45.501Z,10.71
2019-04-21T05:51:18.086Z,10.73
2019-04-21T05:53:53.328Z,10.77
2019-04-21T05:56:27.680Z,10.78
2019-04-21T05:58:48.550Z,10.86
2019-04-21T06:04:01.723Z,11.07
2019-04-21T06:06:34.173Z,11.13
2019-04-21T06:08:59.459Z,11.17
2019-04-21T06:11:32.669Z,11.25
2019-04-21T06:14:01.403Z,11.31
2019-04-21T06:16:40.729Z,11.38
2019-04-21T06:19:25.504Z,11.49
2019-04-21T06:21:35.406Z,11.51
2019-04-21T06:24:06.803Z,11.58
2019-04-21T06:27:00.102Z,11.70
2019-04-21T06:29:09.747Z,11.80
2019-04-21T06:34:08.190Z,11.93
2019-04-21T06:36:56.760Z,11.98
2019-04-21T06:39:22.998Z,12.06
2019-04-21T06:41:55.701Z,12.14
2019-04-21T06:44:53.750Z,12.33
2019-04-21T06:47:24.659Z,12.49
2019-04-21T06:49:50.860Z,12.50
2019-04-21T06:52:43.527Z,12.72
2019-04-21T06:54:56.091Z,12.78
2019-04-21T06:57:26.014Z,12.76
2019-04-21T06:59:49.720Z,12.86
2019-04-21T07:04:56.073Z,12.95
2019-04-21T07:07:26.236Z,13.01
2019-04-21T07:10:01.440Z,13.13
2019-04-21T07:12:29.003Z,13.27
2019-04-21T07:14:58.947Z,13.31
2019-04-21T07:20:09.363Z,13.42
2019-04-21T07:22:40.240Z,13.52
2019-04-21T07:25:12.378Z,13.62
2019-04-21T07:27:35.258Z,13.78
2019-04-21T07:30:04.689Z,13.92
2019-04-21T07:32:40.020Z,14.07
2019-04-21T07:35:09.776Z,14.21
2019-04-21T07:37:45.723Z,14.32
2019-04-21T07:40:05.213Z,14.39
2019-04-21T07:42:49.759Z,14.50
2019-04-21T07:45:16.876Z,14.58
2019-04-21T07:47:59.269Z,14.62
2019-04-21T07:50:39.784Z,14.70
2019-04-21T07:53:16.320Z,14.81
2019-04-21T07:58:06.944Z,14.99
2019-04-21T08:03:14.137Z,15.24
2019-04-21T08:05:47.107Z,15.37
2019-04-21T08:08:13.376Z,15.54
2019-04-21T08:10:44.291Z,15.73
2019-04-21T08:13:25.690Z,15.89
2019-04-21T08:16:07.377Z,16.03
2019-04-21T08:18:23.251Z,16.20
2019-04-21T08:20:50.763Z,16.33
2019-04-21T08:23:25.359Z,16.50
2019-04-21T08:26:03.262Z,16.62
2019-04-21T08:28:26.423Z,16.83
2019-04-21T08:30:58.831Z,17.01
2019-04-21T08:33:33.734Z,17.18
2019-04-21T08:36:12.913Z,17.32
2019-04-21T08:38:27.787Z,17.39
2019-04-21T08:41:01.580Z,17.65
2019-04-21T08:43:44.651Z,17.69
2019-04-21T08:46:01.902Z,17.80
2019-04-21T08:48:36.550Z,17.94
2019-04-21T08:51:18.490Z,18.18
2019-04-21T08:53:41.112Z,18.38
2019-04-21T08:56:18.427Z,18.54
2019-04-21T08:58:54.867Z,18.73
2019-04-21T09:01:23.811Z,19.04
2019-04-21T09:04:04.255Z,19.20
2019-04-21T09:06:51.250Z,19.34
2019-04-21T09:09:03.595Z,19.50
2019-04-21T09:11:28.862Z,19.64
2019-04-21T09:14:07.113Z,19.51
2019-04-21T09:16:31.251Z,19.60
2019-04-21T09:18:59.781Z,19.88
2019-04-21T09:21:37.468Z,20.07
2019-04-21T09:24:13.398Z,20.19
2019-04-21T09:26:36.954Z,20.37
2019-04-21T09:29:05.939Z,20.58
2019-04-21T09:31:31.881Z,20.74
2019-04-21T09:33:59.344Z,20.69
2019-04-21T09:36:35.301Z,20.82
2019-04-21T09:39:06.932Z,20.93
2019-04-21T09:41:30.050Z,21.13
2019-04-21T09:44:01.683Z,21.32
2019-04-21T09:46:34.157Z,21.51
2019-04-21T09:49:05.912Z,21.58
2019-04-21T09:51:34.629Z,21.63
2019-04-21T09:54:09.830Z,21.85
2019-04-21T09:56:46.590Z,22.25
2019-04-21T09:59:12.211Z,22.87
2019-04-21T10:01:50.102Z,23.16
2019-04-21T10:04:09.880Z,23.09
2019-04-21T10:06:39.563Z,23.01
2019-04-21T10:09:14.166Z,23.23
2019-04-21T10:11:41.681Z,23.66
2019-04-21T10:14:11.764Z,24.12
2019-04-21T10:16:43.074Z,24.52
2019-04-21T10:19:13.176Z,24.53
2019-04-21T10:21:44.379Z,24.50
2019-04-21T10:24:13.838Z,24.29
2019-04-21T10:26:43.306Z,24.01
2019-04-21T10:29:19.781Z,24.36
2019-04-21T10:31:44.972Z,24.80
2019-04-21T10:34:14.477Z,25.21
2019-04-21T10:36:44.877Z,25.40
2019-04-21T10:39:15.736Z,25.81
2019-04-21T10:41:45.784Z,25.57
2019-04-21T10:44:16.939Z,25.58
2019-04-21T10:46:48.415Z,25.70
2019-04-21T10:49:18.894Z,25.76
2019-04-21T10:51:48.895Z,25.66
2019-04-21T10:54:19.988Z,25.38
2019-04-21T10:56:50.832Z,26.04
2019-04-21T10:59:20.662Z,26.74
2019-04-21T11:01:50.518Z,26.64
2019-04-21T11:04:27.212Z,26.64
2019-04-21T11:06:52.792Z,26.48
2019-04-21T11:09:22.201Z,26.73
2019-04-21T11:11:53.449Z,26.78
2019-04-21T11:14:23.190Z,26.90
2019-04-21T11:16:53.411Z,27.12
2019-04-21T11:19:24.247Z,27.76
2019-04-21T11:21:54.665Z,28.19
2019-04-21T11:24:25.019Z,27.65
2019-04-21T11:26:55.831Z,27.40
2019-04-21T11:29:26.340Z,27.71
2019-04-21T11:31:56.952Z,28.08
2019-04-21T11:34:27.309Z,28.18
2019-04-21T11:36:58.369Z,28.35
2019-04-21T11:39:37.607Z,28.86
2019-04-21T11:42:02.031Z,29.14
2019-04-21T11:44:31.370Z,28.98
2019-04-21T11:47:00.670Z,29.55
2019-04-21T11:49:32.265Z,30.08
2019-04-21T11:52:01.739Z,30.36
2019-04-21T11:54:32.898Z,30.55
2019-04-21T11:57:11.808Z,30.22
2019-04-21T11:59:33.664Z,30.39
2019-04-21T12:02:03.528Z,30.62
2019-04-21T12:04:33.674Z,31.26
2019-04-21T12:07:03.354Z,31.62
2019-04-21T12:09:33.314Z,31.79
2019-04-21T12:12:03.406Z,31.74
2019-04-21T12:14:34.186Z,31.79
2019-04-21T12:17:03.937Z,31.97
2019-04-21T12:19:34.617Z,32.16
2019-04-21T12:22:11.032Z,32.41
2019-04-21T12:24:38.122Z,32.86
2019-04-21T12:27:08.112Z,33.52
2019-04-21T12:29:37.787Z,35.18
2019-04-21T12:32:26.332Z,37.38
2019-04-21T12:34:57.715Z,39.59
2019-04-21T12:37:28.843Z,41.50
2019-04-21T12:39:58.962Z,42.69
2019-04-21T12:42:28.432Z,44.37
2019-04-21T12:44:57.754Z,44.67
2019-04-21T12:47:27.966Z,44.19
2019-04-21T12:49:59.023Z,44.41
2019-04-21T12:52:29.492Z,45.02
2019-04-21T12:54:59.678Z,45.10
2019-04-21T12:57:31.396Z,44.02
2019-04-21T13:00:00.659Z,43.98
2019-04-21T13:02:30.168Z,42.88
2019-04-21T13:05:02.051Z,42.88
2019-04-21T13:07:33.141Z,43.97
2019-04-21T13:10:02.643Z,44.38
2019-04-21T13:12:33.172Z,44.69
2019-04-21T13:15:04.232Z,44.52
2019-04-21T13:17:35.286Z,44.85
2019-04-21T13:20:07.835Z,45.30
2019-04-21T13:22:37.534Z,45.27
2019-04-21T13:25:08.147Z,45.12
2019-04-21T13:27:38.763Z,45.18
2019-04-21T13:30:13.071Z,45.68
2019-04-21T13:32:43.050Z,45.56
2019-04-21T13:35:12.956Z,45.50
2019-04-21T13:37:43.636Z,46.06
2019-04-21T13:40:40.267Z,45.88
2019-04-21T13:42:57.311Z,44.09
2019-04-21T13:45:25.800Z,43.75
2019-04-21T13:47:56.726Z,44.03
2019-04-21T13:50:26.078Z,43.74
2019-04-21T13:52:56.578Z,43.24
2019-04-21T13:55:27.446Z,44.25
2019-04-21T13:57:57.019Z,44.07
2019-04-21T14:00:27.503Z,42.67
2019-04-21T14:02:58.728Z,43.01
2019-04-21T14:05:28.691Z,43.12
2019-04-21T14:07:58.376Z,43.24
2019-04-21T14:10:28.946Z,41.60
2019-04-21T14:12:58.767Z,40.78
2019-04-21T14:15:32.414Z,41.07
2019-04-21T14:18:02.782Z,40.74
2019-04-21T14:20:33.411Z,41.34
2019-04-21T14:23:13.730Z,41.58
2019-04-21T14:25:35.359Z,41.22
2019-04-21T14:28:06.049Z,40.92
2019-04-21T14:30:36.524Z,40.44
2019-04-21T14:33:06.125Z,40.65
2019-04-21T14:35:36.693Z,40.32
2019-04-21T14:38:06.943Z,40.81
2019-04-21T14:40:38.504Z,41.03
2019-04-21T14:43:08.132Z,41.11
2019-04-21T14:45:54.746Z,40.31
2019-04-21T14:48:41.661Z,38.81
2019-04-21T14:51:29.362Z,38.24
2019-04-21T14:54:01.717Z,38.22
2019-04-21T14:56:31.485Z,38.29
2019-04-21T14:59:02.387Z,38.43
2019-04-21T15:01:32.038Z,38.71
2019-04-21T15:04:01.617Z,38.30
2019-04-21T15:06:31.538Z,37.99
2019-04-21T15:09:01.267Z,37.61
2019-04-21T15:11:31.925Z,36.88
2019-04-21T15:14:02.031Z,36.58
2019-04-21T15:16:32.892Z,36.54
2019-04-21T15:19:02.631Z,36.82
2019-04-21T15:21:33.342Z,36.31
2019-04-21T15:24:04.501Z,35.87
2019-04-21T15:26:34.074Z,35.30
2019-04-21T15:29:04.571Z,34.86
2019-04-21T15:31:39.197Z,34.67
2019-04-21T15:34:05.425Z,34.44
2019-04-21T15:36:35.274Z,34.17
2019-04-21T15:39:07.669Z,34.27
2019-04-21T15:41:38.476Z,33.88
2019-04-21T15:44:09.726Z,33.44
2019-04-21T15:46:39.925Z,33.26
2019-04-21T15:49:11.158Z,33.04
2019-04-21T15:51:42.060Z,32.76
2019-04-21T15:54:11.606Z,32.42
2019-04-21T15:56:42.908Z,32.39
2019-04-21T15:59:24.430Z,32.29
2019-04-21T16:01:58.869Z,32.00
2019-04-21T16:04:28.681Z,31.74
2019-04-21T16:06:59.491Z,31.70
2019-04-21T16:09:30.808Z,31.34
2019-04-21T16:12:01.800Z,30.84
2019-04-21T16:14:32.444Z,30.45
2019-04-21T16:17:03.315Z,29.85
2019-04-21T16:19:33.356Z,29.21
2019-04-21T16:22:06.315Z,29.11
2019-04-21T16:24:36.109Z,29.10
2019-04-21T16:27:08.495Z,28.78
2019-04-21T16:29:37.374Z,28.87
2019-04-21T16:32:07.029Z,29.11
2019-04-21T16:34:45.387Z,28.73
2019-04-21T16:37:07.791Z,28.40
2019-04-21T16:39:37.815Z,28.21
2019-04-21T16:42:08.486Z,27.89
2019-04-21T16:44:38.911Z,27.54
2019-04-21T16:47:09.695Z,27.14
2019-04-21T16:49:40.081Z,27.00
2019-04-21T16:52:18.304Z,26.65
2019-04-21T16:54:52.195Z,26.30
2019-04-21T16:57:23.867Z,26.08
2019-04-21T16:59:55.070Z,25.84
2019-04-21T17:02:24.860Z,25.73
2019-04-21T17:04:54.512Z,25.22
2019-04-21T17:07:24.149Z,25.14
2019-04-21T17:09:54.882Z,25.17
2019-04-21T17:12:26.307Z,25.10
2019-04-21T17:15:10.870Z,24.95
2019-04-21T17:17:51.406Z,24.76
2019-04-21T17:20:13.928Z,24.49
2019-04-21T17:22:29.031Z,24.17
2019-04-21T17:24:59.984Z,23.98
2019-04-21T17:27:31.201Z,23.70
2019-04-21T17:30:01.176Z,23.60
2019-04-21T17:32:35.660Z,23.46
2019-04-21T17:35:02.104Z,23.22
2019-04-21T17:37:32.412Z,23.04
2019-04-21T17:40:04.913Z,22.78
2019-04-21T17:42:39.756Z,22.59
2019-04-21T17:45:06.686Z,22.33
2019-04-21T17:47:44.823Z,22.04
2019-04-21T17:50:21.467Z,21.92
2019-04-21T17:53:07.206Z,21.75
2019-04-21T17:55:37.416Z,21.75
2019-04-21T17:58:21.696Z,21.69
2019-04-21T18:01:10.937Z,21.50
2019-04-21T18:03:45.709Z,21.32
2019-04-21T18:05:59.586Z,21.27
2019-04-21T18:08:37.109Z,21.23
2019-04-21T18:10:59.544Z,21.17
2019-04-21T18:13:21.083Z,21.13
2019-04-21T18:16:01.560Z,21.05
2019-04-21T18:18:20.962Z,21.07
2019-04-21T18:20:55.143Z,20.97
2019-04-21T18:23:44.349Z,20.91
2019-04-21T18:26:08.217Z,20.88
2019-04-21T18:28:33.030Z,20.83
2019-04-21T18:31:04.675Z,20.77
2019-04-21T18:33:40.291Z,20.66
2019-04-21T18:36:31.720Z,20.70
2019-04-21T18:39:12.679Z,20.71
2019-04-21T18:41:42.744Z,20.67
2019-04-21T18:44:44.406Z,20.60
2019-04-21T18:47:09.633Z,20.56
2019-04-21T18:49:40.351Z,20.51
2019-04-21T18:52:20.301Z,20.37
2019-04-21T18:54:56.137Z,20.24
2019-04-21T18:57:24.337Z,20.19
2019-04-21T18:59:45.529Z,20.18
2019-04-21T19:02:18.078Z,20.00
2019-04-21T19:04:46.859Z,19.90
2019-04-21T19:07:28.389Z,19.80
2019-04-21T19:12:50.710Z,19.55
2019-04-21T19:15:04.591Z,19.52
2019-04-21T19:20:18.106Z,19.42
2019-04-21T19:22:35.988Z,19.29
2019-04-21T19:25:15.384Z,19.25
2019-04-21T19:27:43.959Z,19.17
2019-04-21T19:30:20.171Z,19.04
2019-04-21T19:32:46.666Z,18.99
2019-04-21T19:35:01.879Z,18.86
2019-04-21T19:37:41.063Z,18.66
2019-04-21T19:40:10.581Z,18.56
2019-04-21T19:42:42.625Z,18.45
2019-04-21T19:45:19.068Z,18.37
2019-04-21T19:47:55.885Z,18.20
2019-04-21T19:50:28.731Z,18.07
2019-04-21T19:52:49.739Z,18.00
2019-04-21T19:55:12.060Z,17.91
2019-04-21T19:57:43.052Z,17.80
2019-04-21T20:00:15.995Z,17.77
2019-04-21T20:02:45.543Z,17.71
2019-04-21T20:05:24.164Z,17.60
2019-04-21T20:08:03.635Z,17.51
2019-04-21T20:10:42.617Z,17.41
2019-04-21T20:13:08.635Z,17.26
2019-04-21T20:15:42.146Z,17.19
2019-04-21T20:18:04.803Z,17.05
2019-04-21T20:20:21.989Z,16.91
2019-04-21T20:22:53.418Z,16.80
2019-04-21T20:25:23.697Z,16.80
2019-04-21T20:28:01.354Z,16.79
2019-04-21T20:30:42.403Z,16.71
2019-04-21T20:33:36.886Z,16.59
2019-04-21T20:35:51.930Z,16.48
2019-04-21T20:38:12.587Z,16.49
2019-04-21T20:40:42.205Z,16.48
2019-04-21T20:43:25.088Z,16.40
2019-04-21T20:45:52.701Z,16.41
2019-04-21T20:48:14.009Z,16.38
2019-04-21T20:50:49.261Z,16.29
2019-04-21T20:53:24.923Z,16.22
2019-04-21T20:55:48.674Z,16.14
2019-04-21T20:58:23.682Z,16.04
2019-04-21T21:01:06.091Z,15.91
2019-04-21T21:03:28.838Z,15.84
2019-04-21T21:05:57.388Z,15.72
2019-04-21T21:08:32.719Z,15.64
2019-04-21T21:10:55.166Z,15.61
2019-04-21T21:13:41.024Z,15.59
2019-04-21T21:16:10.248Z,15.69
2019-04-21T21:21:07.870Z,15.44
2019-04-21T21:23:39.464Z,15.37
2019-04-21T21:26:09.994Z,15.31
2019-04-21T21:28:37.475Z,15.23
2019-04-21T21:31:13.224Z,15.23
2019-04-21T21:33:54.229Z,15.20
2019-04-21T21:36:13.451Z,15.16
2019-04-21T21:38:43.350Z,15.11
2019-04-21T21:41:07.639Z,15.08
2019-04-21T21:43:30.614Z,15.06
2019-04-21T21:46:04.824Z,15.05
2019-04-21T21:48:44.965Z,15.02
2019-04-21T21:51:10.754Z,14.98
2019-04-21T21:53:35.889Z,14.93
2019-04-21T21:56:06.822Z,14.91
2019-04-21T21:58:40.326Z,14.88
2019-04-21T22:01:08.752Z,14.81
2019-04-21T22:03:44.433Z,14.75
2019-04-21T22:06:15.500Z,14.71
2019-04-21T22:08:42.543Z,14.64
2019-04-21T22:11:12.115Z,14.59
2019-04-21T22:13:47.612Z,14.62
2019-04-21T22:16:15.697Z,14.56
2019-04-21T22:19:04.745Z,14.48
2019-04-21T22:21:36.523Z,14.43
2019-04-21T22:23:57.055Z,14.37
2019-04-21T22:26:17.119Z,14.30
2019-04-21T22:28:47.592Z,14.26
2019-04-21T22:31:22.588Z,14.22
2019-04-21T22:33:54.759Z,14.19
2019-04-21T22:36:33.143Z,14.16
2019-04-21T22:39:08.996Z,14.05
2019-04-21T22:41:30.279Z,14.05
2019-04-21T22:43:54.235Z,14.04
2019-04-21T22:46:24.511Z,14.05
2019-04-21T22:48:59.726Z,14.09
2019-04-21T22:51:35.354Z,14.04
2019-04-21T22:53:59.219Z,14.01
2019-04-21T22:56:32.084Z,13.98
2019-04-21T22:58:59.015Z,13.89
2019-04-21T23:01:34.997Z,13.87
2019-04-21T23:04:02.791Z,13.83
2019-04-21T23:06:34.311Z,13.75
2019-04-21T23:09:02.557Z,13.68
2019-04-21T23:11:37.513Z,13.58
2019-04-21T23:14:06.614Z,13.61
2019-04-21T23:16:38.039Z,13.60
2019-04-21T23:19:22.854Z,13.61
2019-04-21T23:21:59.637Z,13.72
2019-04-21T23:24:31.754Z,13.63
2019-04-21T23:26:51.707Z,13.49
2019-04-21T23:29:39.345Z,13.40
2019-04-21T23:31:59.236Z,13.34
2019-04-21T23:34:19.636Z,13.29
2019-04-21T23:36:54.797Z,13.27
2019-04-21T23:39:22.757Z,13.24
2019-04-21T23:41:51.185Z,13.18
2019-04-21T23:44:19.030Z,13.18
2019-04-21T23:46:54.867Z,13.20
2019-04-21T23:49:34.595Z,13.19
2019-04-21T23:51:58.034Z,13.12
2019-04-21T23:54:23.025Z,13.05
2019-04-21T23:56:53.860Z,13.02
2019-04-21T23:59:24.817Z,13.02
